Time;durP1;ratioP1;P1;durP2;ratioP2;P2;SDS_P1;SDS_P2;PMS_P1;PMS_P2;Temp;Humidity;BMP_temperature;BMP_pressure;BME280_temperature;BME280_humidity;BME280_pressure;Samples;Min_cycle;Max_cycle;Signal;HPM_P1;HPM_P2
2022/05/12 00:02:01;;;;;;;5.40;1.40;;;12.10;99.90;;;;;;5096931;27;20169;-78
2022/05/12 00:04:31;;;;;;;4.43;1.23;;;12.10;99.90;;;;;;5115234;27;20046;-79
2022/05/12 00:06:57;;;;;;;4.25;1.42;;;11.90;99.90;;;;;;5099383;27;20035;-79
2022/05/12 00:09:23;;;;;;;4.82;1.20;;;12.00;99.90;;;;;;5098793;27;20087;-78
2022/05/12 00:11:49;;;;;;;5.47;1.30;;;12.00;99.90;;;;;;5115270;27;20038;-78
2022/05/12 00:14:15;;;;;;;4.22;1.10;;;12.00;99.90;;;;;;5114066;27;20043;-78
2022/05/12 00:16:41;;;;;;;5.97;1.30;;;11.90;99.90;;;;;;5114314;27;20156;-79
2022/05/12 00:19:07;;;;;;;5.38;1.00;;;12.50;99.90;;;;;;5097129;27;20135;-78
2022/05/12 00:21:33;;;;;;;4.07;0.90;;;11.90;99.90;;;;;;5096444;27;20035;-79
2022/05/12 00:23:59;;;;;;;3.22;0.98;;;11.80;99.90;;;;;;5096822;27;20042;-78
2022/05/12 00:26:34;;;;;;;4.22;1.33;;;11.80;99.90;;;;;;5075081;27;20065;-79
2022/05/12 00:29:03;;;;;;;2.78;1.10;;;11.80;99.90;;;;;;5114153;27;20399;-79
2022/05/12 00:31:30;;;;;;;4.00;1.10;;;11.80;99.90;;;;;;5094604;27;20091;-79
2022/05/12 00:33:55;;;;;;;6.20;0.98;;;11.80;99.90;;;;;;5133987;27;20097;-79
2022/05/12 00:36:21;;;;;;;3.47;1.13;;;11.70;99.90;;;;;;5098725;27;20084;-79
2022/05/12 00:38:51;;;;;;;6.05;1.00;;;12.50;99.90;;;;;;5102314;27;20122;-78
2022/05/12 00:41:17;;;;;;;3.67;1.08;;;11.70;99.90;;;;;;5119009;27;20433;-78
2022/05/12 00:43:46;;;;;;;2.30;0.70;;;11.70;99.90;;;;;;5113281;27;20099;-78
2022/05/12 00:46:26;;;;;;;2.45;1.00;;;11.70;99.90;;;;;;5133361;27;20047;-79
2022/05/12 00:48:57;;;;;;;3.20;1.25;;;11.70;99.90;;;;;;5136544;27;20043;-78
2022/05/12 00:51:37;;;;;;;2.75;1.05;;;11.60;99.90;;;;;;5096793;27;20117;-79
2022/05/12 00:54:06;;;;;;;4.97;1.00;;;11.60;99.90;;;;;;5096593;27;20039;-80
2022/05/12 00:56:34;;;;;;;4.13;1.00;;;11.60;99.90;;;;;;5101312;27;20059;-79
2022/05/12 00:59:02;;;;;;;2.33;1.00;;;11.60;99.90;;;;;;5095401;27;20076;-78
2022/05/12 01:01:28;;;;;;;1.85;0.95;;;11.70;99.90;;;;;;5093676;27;20123;-79
2022/05/12 01:03:57;;;;;;;5.03;1.20;;;11.60;99.90;;;;;;5098550;27;20042;-78
2022/05/12 01:06:23;;;;;;;3.17;1.30;;;11.60;99.90;;;;;;5098439;27;20118;-79
2022/05/12 01:08:49;;;;;;;4.38;1.30;;;11.60;99.90;;;;;;5096347;27;20130;-78
2022/05/12 01:11:17;;;;;;;5.90;1.23;;;11.50;99.90;;;;;;5095562;27;20043;-78
2022/05/12 01:13:54;;;;;;;5.85;1.17;;;11.50;99.90;;;;;;5112149;27;20047;-78
2022/05/12 01:16:39;;;;;;;4.50;1.20;;;11.50;99.90;;;;;;5114064;27;20046;-79
2022/05/12 01:19:06;;;;;;;3.55;1.15;;;11.50;99.90;;;;;;5112905;27;20031;-79
2022/05/12 01:21:33;;;;;;;2.22;0.90;;;11.40;99.90;;;;;;5096420;27;20038;-79
2022/05/12 01:24:00;;;;;;;3.38;1.00;;;11.40;99.90;;;;;;5097268;27;20474;-78
2022/05/12 01:26:27;;;;;;;4.32;1.20;;;11.40;99.90;;;;;;5096745;27;20398;-79
2022/05/12 01:28:54;;;;;;;6.82;1.30;;;11.40;99.90;;;;;;5114237;27;20081;-78
2022/05/12 01:31:21;;;;;;;2.97;1.27;;;11.40;99.90;;;;;;5096240;27;20046;-78
2022/05/12 01:33:47;;;;;;;5.05;1.30;;;11.40;99.90;;;;;;5098580;27;20053;-79
2022/05/12 01:36:13;;;;;;;4.97;1.83;;;11.40;99.90;;;;;;5098101;27;20118;-78
2022/05/12 01:38:38;;;;;;;3.47;1.58;;;11.40;99.90;;;;;;5080286;28;20046;-79
2022/05/12 01:41:07;;;;;;;5.10;1.38;;;11.40;99.90;;;;;;5080269;27;20035;-78
2022/05/12 01:43:32;;;;;;;7.95;1.50;;;11.40;99.90;;;;;;5115501;27;20031;-79
2022/05/12 01:46:00;;;;;;;5.75;1.25;;;11.30;99.90;;;;;;5112673;27;20091;-79
2022/05/12 01:48:26;;;;;;;5.50;1.60;;;11.30;99.90;;;;;;5096171;27;20123;-79
2022/05/12 01:50:52;;;;;;;7.88;1.60;;;11.30;99.90;;;;;;5095430;27;20046;-79
2022/05/12 01:53:18;;;;;;;5.05;1.48;;;11.30;99.90;;;;;;5094499;27;20039;-79
2022/05/12 01:55:47;;;;;;;4.13;1.23;;;11.20;99.90;;;;;;5112147;27;20041;-78
2022/05/12 01:58:13;;;;;;;8.85;1.70;;;11.20;99.90;;;;;;5072801;27;20064;-79
2022/05/12 02:00:39;;;;;;;6.80;1.65;;;11.20;99.90;;;;;;5095984;27;20039;-79
2022/05/12 02:03:05;;;;;;;7.10;1.33;;;11.20;99.90;;;;;;5114115;27;20043;-78
2022/05/12 02:05:33;;;;;;;7.53;1.40;;;11.10;99.90;;;;;;5098148;27;20078;-78
2022/05/12 02:07:59;;;;;;;6.90;1.58;;;11.10;99.90;;;;;;5095059;27;20043;-79
2022/05/12 02:10:29;;;;;;;5.35;1.20;;;11.10;99.90;;;;;;5109254;27;20093;-78
2022/05/12 02:12:56;;;;;;;9.23;1.70;;;11.10;99.90;;;;;;5094052;27;20125;-79
2022/05/12 02:15:22;;;;;;;5.30;1.50;;;11.10;99.90;;;;;;5093829;27;20130;-79
2022/05/12 02:17:51;;;;;;;6.57;1.38;;;11.00;99.90;;;;;;5111649;27;20043;-78
2022/05/12 02:20:19;;;;;;;5.63;1.55;;;11.00;99.90;;;;;;5060777;27;20050;-78
2022/05/12 02:22:45;;;;;;;7.60;1.60;;;11.00;99.90;;;;;;5109678;27;20060;-79
2022/05/12 02:25:11;;;;;;;8.63;1.90;;;10.90;99.90;;;;;;5107483;28;20052;-78
2022/05/12 02:27:42;;;;;;;9.18;1.65;;;10.90;99.90;;;;;;5066978;28;20527;-78
2022/05/12 02:30:10;;;;;;;8.85;1.60;;;11.80;99.90;;;;;;5107151;28;20048;-80
2022/05/12 02:32:36;;;;;;;8.25;2.08;;;10.90;99.90;;;;;;5080372;28;20384;-79
2022/05/12 02:35:02;;;;;;;11.32;2.20;;;10.90;99.90;;;;;;5107868;28;20031;-79
2022/05/12 02:37:28;;;;;;;8.55;1.70;;;10.90;99.90;;;;;;5065167;28;20039;-79
2022/05/12 02:39:55;;;;;;;10.13;2.15;;;10.90;99.90;;;;;;5106708;28;20395;-79
2022/05/12 02:42:22;;;;;;;12.40;2.50;;;10.80;99.90;;;;;;5106612;28;20039;-79
2022/05/12 02:44:48;;;;;;;8.18;1.67;;;10.80;99.90;;;;;;5069464;28;20052;-78
2022/05/12 02:47:14;;;;;;;7.28;2.10;;;10.80;99.90;;;;;;5094518;28;20035;-78
2022/05/12 02:49:41;;;;;;;7.00;2.30;;;10.80;99.90;;;;;;5053585;28;20428;-79
2022/05/12 02:52:09;;;;;;;8.93;2.00;;;10.80;99.90;;;;;;5091454;28;20047;-78
2022/05/12 02:54:39;;;;;;;10.15;2.15;;;10.80;99.90;;;;;;5090755;28;20027;-77
2022/05/12 02:57:05;;;;;;;12.02;1.65;;;10.80;99.90;;;;;;5091193;28;20042;-79
2022/05/12 02:59:31;;;;;;;9.55;2.20;;;10.60;99.90;;;;;;5073587;28;20040;-79
2022/05/12 03:01:58;;;;;;;12.00;2.30;;;10.70;99.90;;;;;;5109522;28;20031;-80
2022/05/12 03:04:25;;;;;;;8.27;2.17;;;10.70;99.90;;;;;;5071739;28;20032;-78
2022/05/12 03:06:52;;;;;;;7.65;1.98;;;10.70;99.90;;;;;;5094255;28;20743;-78
2022/05/12 03:09:18;;;;;;;14.23;2.85;;;11.00;99.90;;;;;;5107652;28;20039;-78
2022/05/12 03:11:44;;;;;;;12.93;2.72;;;10.90;99.90;;;;;;5092511;28;20035;-77
2022/05/12 03:14:10;;;;;;;6.80;2.67;;;10.60;99.90;;;;;;5093338;28;20165;-78
2022/05/12 03:16:36;;;;;;;11.68;2.35;;;10.60;99.90;;;;;;5108956;28;20122;-79
2022/05/12 03:19:02;;;;;;;9.40;2.42;;;10.50;99.90;;;;;;5090813;28;20396;-79
2022/05/12 03:21:28;;;;;;;11.63;3.05;;;10.50;99.90;;;;;;5107837;28;20047;-80
2022/05/12 03:23:54;;;;;;;8.63;2.40;;;10.40;99.90;;;;;;5109958;28;20538;-80
2022/05/12 03:26:21;;;;;;;10.10;2.80;;;10.40;99.90;;;;;;5075330;28;20102;-80
2022/05/12 03:28:46;;;;;;;8.25;2.55;;;10.30;99.90;;;;;;5090834;28;20048;-79
2022/05/12 03:31:12;;;;;;;11.77;2.60;;;10.30;99.90;;;;;;5109197;28;20042;-79
2022/05/12 03:33:38;;;;;;;6.60;2.50;;;10.30;99.90;;;;;;5089886;28;20049;-79
2022/05/12 03:36:06;;;;;;;9.07;2.60;;;10.20;99.90;;;;;;5092576;28;20127;-79
2022/05/12 03:38:32;;;;;;;8.25;2.70;;;10.20;99.90;;;;;;5091520;28;20097;-79
2022/05/12 03:40:58;;;;;;;8.80;2.80;;;10.20;99.90;;;;;;5109582;28;20036;-78
2022/05/12 03:46:13;;;;;;;8.38;3.03;;;10.10;99.90;;;;;;5109009;28;20440;-80
2022/05/12 03:48:40;;;;;;;8.93;3.03;;;9.90;99.90;;;;;;5105993;28;20498;-79
2022/05/12 03:51:07;;;;;;;8.95;3.28;;;10.10;99.90;;;;;;5072253;28;20510;-79
2022/05/12 03:53:34;;;;;;;12.05;3.45;;;10.00;99.90;;;;;;5091486;28;20415;-79
2022/05/12 03:56:02;;;;;;;12.70;4.55;;;10.00;99.90;;;;;;5092143;28;20044;-79
2022/05/12 03:58:28;;;;;;;9.80;3.80;;;10.00;99.90;;;;;;5106994;28;20479;-79
2022/05/12 04:00:54;;;;;;;12.75;4.57;;;10.00;99.90;;;;;;5108733;28;20036;-79
2022/05/12 04:03:20;;;;;;;11.98;4.50;;;10.00;99.90;;;;;;5109999;28;20104;-78
2022/05/12 04:05:47;;;;;;;12.45;4.63;;;10.00;99.90;;;;;;5112687;28;20032;-79
2022/05/12 04:08:13;;;;;;;10.77;4.85;;;10.00;99.90;;;;;;5112373;28;20042;-80
2022/05/12 04:10:39;;;;;;;12.05;5.10;;;9.90;99.90;;;;;;5111874;28;20043;-79
2022/05/12 04:13:05;;;;;;;17.00;5.50;;;9.90;99.90;;;;;;5074771;28;20488;-80
2022/05/12 04:15:31;;;;;;;13.38;5.70;;;10.00;99.90;;;;;;5110969;28;20036;-79
2022/05/12 04:18:00;;;;;;;13.00;5.32;;;10.40;99.90;;;;;;5093293;28;20038;-79
2022/05/12 04:20:27;;;;;;;10.68;5.38;;;10.00;99.90;;;;;;5094199;28;20523;-79
2022/05/12 04:22:53;;;;;;;14.35;5.75;;;10.10;99.90;;;;;;5097992;28;20483;-79
2022/05/12 04:25:20;;;;;;;12.82;5.55;;;10.00;99.90;;;;;;5110654;28;20063;-79
2022/05/12 04:27:46;;;;;;;13.82;5.43;;;10.00;99.90;;;;;;5111807;28;20047;-79
2022/05/12 04:30:14;;;;;;;11.10;6.15;;;10.20;99.90;;;;;;5112024;28;20047;-79
2022/05/12 04:32:40;;;;;;;12.32;5.50;;;10.00;99.90;;;;;;5113896;28;20031;-79
2022/05/12 04:35:11;;;;;;;13.88;6.97;;;10.00;99.90;;;;;;5110197;28;20039;-79
2022/05/12 04:37:40;;;;;;;11.57;6.10;;;10.00;99.90;;;;;;5109733;28;20092;-79
2022/05/12 04:40:17;;;;;;;12.80;6.35;;;10.00;99.90;;;;;;5093701;28;20039;-79
2022/05/12 04:42:43;;;;;;;13.30;6.07;;;10.00;99.90;;;;;;5109331;28;21336;-79
2022/05/12 04:45:14;;;;;;;12.65;5.78;;;10.30;99.90;;;;;;5110116;28;20036;-79
2022/05/12 04:47:40;;;;;;;13.00;6.05;;;9.90;99.90;;;;;;5094423;28;20039;-79
2022/05/12 04:50:09;;;;;;;13.18;5.60;;;10.70;99.90;;;;;;5095473;28;20190;-79
2022/05/12 04:52:35;;;;;;;9.77;5.47;;;10.00;99.90;;;;;;5130020;27;20027;-79
2022/05/12 04:55:02;;;;;;;14.98;5.38;;;10.70;99.90;;;;;;5110514;28;20093;-78
2022/05/12 04:57:33;;;;;;;10.10;4.65;;;10.00;99.90;;;;;;5095800;28;20032;-79
2022/05/12 04:59:59;;;;;;;10.68;5.25;;;10.00;99.90;;;;;;5094628;28;20507;-79
2022/05/12 05:02:25;;;;;;;10.15;5.00;;;10.00;99.90;;;;;;5077006;28;20122;-80
2022/05/12 05:04:51;;;;;;;14.50;5.72;;;10.20;99.90;;;;;;5071935;28;20035;-79
2022/05/12 05:07:17;;;;;;;16.35;5.15;;;10.10;99.90;;;;;;5096342;28;20058;-79
2022/05/12 05:09:43;;;;;;;15.00;5.40;;;10.20;99.90;;;;;;5111825;28;20047;-79
2022/05/12 05:12:09;;;;;;;11.95;5.82;;;10.50;99.90;;;;;;5112775;28;20383;-80
2022/05/12 05:14:35;;;;;;;15.68;5.78;;;10.20;99.90;;;;;;5076309;28;20080;-79
2022/05/12 05:17:00;;;;;;;16.23;6.05;;;10.30;99.90;;;;;;5075899;28;20393;-79
2022/05/12 05:19:26;;;;;;;17.55;5.82;;;10.30;99.90;;;;;;5061551;28;20035;-79
2022/05/12 05:21:52;;;;;;;17.73;7.05;;;10.40;99.90;;;;;;5076561;28;20046;-79
2022/05/12 05:24:18;;;;;;;13.48;7.72;;;10.40;99.90;;;;;;5109869;28;20028;-78
2022/05/12 05:26:44;;;;;;;16.63;7.15;;;10.50;99.90;;;;;;5078754;28;20047;-79
2022/05/12 05:29:10;;;;;;;18.83;6.45;;;10.50;99.90;;;;;;5094279;28;20035;-79
2022/05/12 05:31:39;;;;;;;17.05;7.13;;;10.60;99.90;;;;;;5096833;28;20043;-80
2022/05/12 05:34:05;;;;;;;15.80;6.78;;;10.70;99.90;;;;;;5111626;28;20108;-79
2022/05/12 05:36:31;;;;;;;17.45;6.88;;;11.10;99.90;;;;;;5093499;28;20040;-79
2022/05/12 05:38:58;;;;;;;16.20;6.70;;;10.80;99.90;;;;;;5110322;28;20047;-80
2022/05/12 05:41:23;;;;;;;17.75;7.35;;;10.90;99.90;;;;;;5110368;28;20142;-81
2022/05/12 05:43:49;;;;;;;14.45;7.22;;;11.00;99.90;;;;;;5113980;28;20064;-81
2022/05/12 05:46:16;;;;;;;13.57;6.85;;;11.10;99.90;;;;;;5116486;28;20044;-81
2022/05/12 05:48:43;;;;;;;11.70;6.70;;;10.90;99.90;;;;;;5109095;28;20036;-80
2022/05/12 05:54:01;;;;;;;15.02;7.07;;;11.20;99.90;;;;;;5089528;28;20047;-80
2022/05/12 05:56:27;;;;;;;13.55;6.50;;;11.30;99.90;;;;;;5090104;28;20044;-79
2022/05/12 05:58:54;;;;;;;12.13;6.60;;;11.40;99.90;;;;;;5108410;28;20043;-79
2022/05/12 06:01:20;;;;;;;16.55;6.65;;;11.50;99.90;;;;;;5095121;28;20778;-81
2022/05/12 06:03:47;;;;;;;18.02;6.65;;;11.70;99.90;;;;;;5077852;28;21345;-81
2022/05/12 06:06:13;;;;;;;18.40;6.78;;;11.70;99.90;;;;;;5111983;28;20035;-79
2022/05/12 06:08:39;;;;;;;12.77;6.13;;;11.80;99.90;;;;;;5095528;28;20104;-81
2022/05/12 06:11:05;;;;;;;14.38;5.78;;;11.90;99.90;;;;;;5094202;28;20039;-80
2022/05/12 06:13:33;;;;;;;15.70;6.80;;;12.00;99.90;;;;;;5068350;28;20904;-82
2022/05/12 06:16:06;;;;;;;12.45;6.00;;;12.10;99.90;;;;;;5093322;28;20476;-79
2022/05/12 06:18:36;;;;;;;13.50;5.18;;;12.30;99.90;;;;;;5111129;28;20076;-79
2022/05/12 06:21:04;;;;;;;13.55;5.50;;;12.40;99.90;;;;;;5092704;28;20502;-79
2022/05/12 06:23:30;;;;;;;13.90;5.28;;;12.50;99.90;;;;;;5109321;28;20368;-78
2022/05/12 06:25:57;;;;;;;10.43;4.72;;;12.60;99.90;;;;;;5104223;28;20074;-78
2022/05/12 06:28:23;;;;;;;14.05;4.57;;;12.70;99.90;;;;;;5090479;28;20502;-78
2022/05/12 06:30:49;;;;;;;11.02;4.15;;;12.80;99.90;;;;;;5108341;28;20040;-82
2022/05/12 06:33:19;;;;;;;12.38;4.03;;;13.00;99.90;;;;;;5070653;28;20050;-79
2022/05/12 06:35:45;;;;;;;10.88;4.55;;;13.20;99.90;;;;;;5090622;28;20062;-80
2022/05/12 06:38:11;;;;;;;11.27;3.65;;;13.50;99.90;;;;;;5091085;28;20479;-79
2022/05/12 06:40:37;;;;;;;6.95;3.00;;;13.90;99.90;;;;;;5074680;28;20075;-80
2022/05/12 06:43:04;;;;;;;12.52;3.33;;;14.50;99.90;;;;;;5108493;28;20035;-80
2022/05/12 06:45:30;;;;;;;12.88;3.00;;;15.00;99.90;;;;;;5073992;28;20487;-79
2022/05/12 06:47:56;;;;;;;6.03;2.63;;;15.40;99.90;;;;;;5089976;28;20047;-79
2022/05/12 06:50:29;;;;;;;7.43;2.88;;;15.80;99.90;;;;;;5090287;28;20028;-79
2022/05/12 06:52:56;;;;;;;10.00;3.08;;;16.20;99.90;;;;;;5089882;28;20051;-79
2022/05/12 06:55:23;;;;;;;7.05;2.67;;;16.50;99.90;;;;;;5073038;28;20134;-79
2022/05/12 06:57:54;;;;;;;9.63;3.75;;;16.50;99.90;;;;;;5091810;28;20484;-79
2022/05/12 07:00:20;;;;;;;8.43;2.83;;;16.40;99.90;;;;;;5089330;28;20122;-80
2022/05/12 07:02:47;;;;;;;13.57;3.10;;;16.40;99.90;;;;;;5066668;28;20173;-79
2022/05/12 07:05:15;;;;;;;11.75;3.35;;;16.60;99.90;;;;;;5091084;28;20032;-79
2022/05/12 07:07:42;;;;;;;10.30;2.60;;;16.80;99.90;;;;;;5090960;28;20036;-79
2022/05/12 07:10:09;;;;;;;10.77;3.00;;;17.10;99.90;;;;;;5106619;28;20028;-80
2022/05/12 07:12:34;;;;;;;8.55;2.78;;;17.40;99.90;;;;;;5071661;28;20425;-79
2022/05/12 07:15:01;;;;;;;11.57;2.75;;;17.60;99.90;;;;;;5090368;28;20036;-78
2022/05/12 07:17:26;;;;;;;7.88;2.70;;;17.70;99.90;;;;;;5089114;28;20440;-79
2022/05/12 07:26:34;;;;;;;9.27;2.85;;;17.70;99.90;;;;;;5085204;28;20197;-78
2022/05/12 07:28:10;;;;;;;9.23;2.00;;;17.90;99.90;;;;;;5077531;28;20138;-79
2022/05/12 07:31:00;;;;;;;7.70;1.90;;;17.90;99.90;;;;;;5106308;28;20111;-79
2022/05/12 07:33:22;;;;;;;6.50;1.67;;;17.90;99.90;;;;;;5106709;28;20159;-79
2022/05/12 07:35:48;;;;;;;8.02;2.50;;;17.90;99.90;;;;;;5107970;28;20110;-80
2022/05/12 07:38:13;;;;;;;6.80;2.10;;;17.80;99.90;;;;;;5092779;28;20060;-79
2022/05/12 07:40:39;;;;;;;17.20;2.63;;;17.80;99.90;;;;;;5111397;28;20043;-79
2022/05/12 07:43:05;;;;;;;10.80;2.50;;;17.80;99.90;;;;;;5111104;28;20034;-79
2022/05/12 07:45:31;;;;;;;7.78;2.25;;;17.90;99.90;;;;;;5095203;28;20076;-79
2022/05/12 07:47:57;;;;;;;10.38;2.70;;;18.00;99.90;;;;;;5094560;28;20036;-80
2022/05/12 07:50:24;;;;;;;6.72;2.30;;;18.00;99.90;;;;;;5094860;28;20054;-79
2022/05/12 07:52:50;;;;;;;6.20;1.85;;;18.10;99.90;;;;;;5111209;28;20058;-80
2022/05/12 07:55:15;;;;;;;7.60;2.50;;;18.20;99.90;;;;;;5078144;28;20043;-80
2022/05/12 07:57:41;;;;;;;9.40;2.85;;;18.30;99.90;;;;;;5111629;28;20035;-80
2022/05/12 08:00:08;;;;;;;10.43;2.65;;;18.20;99.90;;;;;;5077153;28;20483;-79
2022/05/12 08:02:33;;;;;;;9.60;2.20;;;18.20;99.90;;;;;;5078158;28;20149;-81
2022/05/12 08:04:59;;;;;;;5.45;1.92;;;18.10;99.90;;;;;;5062445;28;20158;-81
2022/05/12 08:07:26;;;;;;;8.13;2.15;;;17.90;99.90;;;;;;5059511;28;20035;-80
2022/05/12 08:09:52;;;;;;;7.25;2.15;;;17.80;99.90;;;;;;5093119;28;20502;-79
2022/05/12 08:12:17;;;;;;;5.78;1.85;;;17.70;99.90;;;;;;5092856;28;20047;-79
2022/05/12 08:14:43;;;;;;;7.90;2.60;;;17.60;99.90;;;;;;5092778;28;20044;-79
2022/05/12 08:17:09;;;;;;;6.32;2.13;;;17.60;99.90;;;;;;5110229;28;20039;-78
2022/05/12 08:19:35;;;;;;;6.38;2.13;;;17.60;99.90;;;;;;5092555;28;20125;-79
2022/05/12 08:22:00;;;;;;;9.70;2.33;;;17.70;99.90;;;;;;5090210;28;20114;-79
2022/05/12 08:24:26;;;;;;;6.75;2.08;;;17.70;99.90;;;;;;5075972;28;20138;-81
2022/05/12 08:26:52;;;;;;;8.35;2.33;;;17.70;99.90;;;;;;5065465;28;20479;-80
2022/05/12 08:29:19;;;;;;;9.50;3.00;;;17.80;99.90;;;;;;5093417;28;20039;-81
2022/05/12 08:31:45;;;;;;;7.38;2.35;;;17.80;99.90;;;;;;5109885;28;20668;-81
2022/05/12 08:34:10;;;;;;;9.05;2.28;;;17.70;99.90;;;;;;5110077;28;20047;-80
2022/05/12 08:36:36;;;;;;;7.88;2.13;;;17.70;99.90;;;;;;5076179;28;20493;-80
2022/05/12 08:39:03;;;;;;;12.50;2.58;;;17.80;99.90;;;;;;5093284;28;20031;-80
2022/05/12 08:41:51;;;;;;;5.72;2.03;;;18.00;99.90;;;;;;5079896;28;20032;-80
2022/05/12 08:44:20;;;;;;;8.68;2.10;;;18.10;99.90;;;;;;5093532;28;20450;-80
2022/05/12 08:47:00;;;;;;;7.95;2.28;;;18.20;99.90;;;;;;5110934;28;20027;-80
2022/05/12 08:49:32;;;;;;;9.18;2.13;;;18.30;99.90;;;;;;5093914;28;20032;-80
2022/05/12 08:52:27;;;;;;;6.82;2.17;;;18.40;99.90;;;;;;5093743;28;20046;-79
2022/05/12 08:55:11;;;;;;;7.63;2.20;;;18.30;99.90;;;;;;5092993;28;20039;-81
2022/05/12 08:57:42;;;;;;;6.50;2.33;;;18.10;99.90;;;;;;5111232;28;20483;-81
2022/05/12 09:00:15;;;;;;;8.02;2.22;;;18.10;99.90;;;;;;5110771;28;20043;-79
2022/05/12 09:02:59;;;;;;;6.97;2.08;;;18.20;99.90;;;;;;5112065;28;20039;-79
2022/05/12 09:05:30;;;;;;;6.82;2.13;;;18.20;99.90;;;;;;5110545;28;20035;-80
2022/05/12 09:08:18;;;;;;;7.40;2.00;;;18.30;99.90;;;;;;5093956;28;20177;-79
2022/05/12 09:11:03;;;;;;;7.88;2.00;;;18.40;99.20;;;;;;5110155;28;20492;-81
2022/05/12 09:13:39;;;;;;;7.43;2.03;;;18.40;99.20;;;;;;5109290;28;20055;-81
2022/05/12 09:16:08;;;;;;;4.90;1.73;;;18.20;99.20;;;;;;5109110;28;20047;-80
2022/05/12 09:18:36;;;;;;;5.30;1.73;;;18.20;98.90;;;;;;5092924;28;20544;-80
2022/05/12 09:21:05;;;;;;;4.45;1.80;;;18.20;99.40;;;;;;5093402;28;20047;-80
2022/05/12 09:23:31;;;;;;;4.57;1.40;;;18.10;98.30;;;;;;5091797;28;20108;-79
2022/05/12 09:25:57;;;;;;;4.25;1.50;;;18.30;99.00;;;;;;5066709;28;20045;-80
2022/05/12 09:28:40;;;;;;;6.10;2.20;;;18.30;98.20;;;;;;5110856;28;20071;-79
2022/05/12 09:31:11;;;;;;;5.20;2.00;;;18.50;98.60;;;;;;5109522;28;20044;-79
2022/05/12 09:33:38;;;;;;;5.97;1.77;;;18.60;97.10;;;;;;5110801;28;20067;-79
2022/05/12 09:36:08;;;;;;;7.13;1.48;;;18.70;96.20;;;;;;5094308;28;20066;-80
2022/05/12 09:38:44;;;;;;;6.45;2.17;;;18.80;97.20;;;;;;5091101;28;20058;-80
2022/05/12 09:41:16;;;;;;;4.07;1.60;;;18.70;94.50;;;;;;5112294;28;20074;-80
2022/05/12 09:43:43;;;;;;;6.95;2.00;;;18.50;94.30;;;;;;5094125;28;20035;-79
2022/05/12 09:46:17;;;;;;;3.85;1.65;;;18.40;95.50;;;;;;5068318;28;20031;-79
2022/05/12 09:48:45;;;;;;;8.40;2.22;;;18.40;95.70;;;;;;5108856;28;20096;-80
2022/05/12 09:51:25;;;;;;;4.93;1.38;;;18.20;95.70;;;;;;5109544;28;20043;-79
2022/05/12 09:53:55;;;;;;;6.57;1.60;;;18.20;96.20;;;;;;5107917;28;20031;-79
2022/05/12 09:56:33;;;;;;;3.47;1.33;;;18.20;96.10;;;;;;5109880;28;20055;-79
2022/05/12 09:59:08;;;;;;;3.28;1.35;;;18.20;96.50;;;;;;5123836;27;20053;-79
2022/05/12 10:01:47;;;;;;;8.38;1.73;;;18.30;95.10;;;;;;5090034;28;20479;-78
2022/05/12 10:09:59;;;;;;;7.68;1.90;;;18.00;95.20;;;;;;5113882;28;20035;-79
2022/05/12 10:12:40;;;;;;;6.50;1.98;;;17.90;95.10;;;;;;5117990;28;20028;-81
2022/05/12 10:15:15;;;;;;;4.35;1.98;;;18.00;95.30;;;;;;5091074;28;20108;-79
2022/05/12 10:18:15;;;;;;;6.97;1.67;;;17.80;95.30;;;;;;5108663;28;20039;-79
2022/05/12 10:20:43;;;;;;;3.40;1.27;;;17.80;96.30;;;;;;5067058;28;20213;-78
2022/05/12 10:24:00;;;;;;;4.60;1.50;;;17.80;95.60;;;;;;5108748;28;20058;-80
2022/05/12 10:26:40;;;;;;;5.10;1.65;;;17.80;94.40;;;;;;5056555;28;20051;-79
2022/05/12 10:29:22;;;;;;;5.85;1.73;;;17.90;95.30;;;;;;5108484;28;20043;-79
2022/05/12 10:32:00;;;;;;;5.82;2.13;;;17.90;93.60;;;;;;5110257;28;20047;-79
2022/05/12 10:34:55;;;;;;;6.18;1.70;;;17.80;94.60;;;;;;5109898;28;20574;-79
2022/05/12 10:37:40;;;;;;;7.07;1.70;;;17.80;96.30;;;;;;5089421;28;20043;-79
2022/05/12 10:40:15;;;;;;;5.90;1.70;;;17.80;95.80;;;;;;5100115;28;20036;-77
2022/05/12 10:42:58;;;;;;;6.03;1.77;;;17.90;94.10;;;;;;5108062;28;20047;-77
2022/05/12 10:45:43;;;;;;;7.10;1.60;;;17.80;94.00;;;;;;5105743;28;20040;-77
2022/05/12 10:48:30;;;;;;;8.38;1.90;;;17.80;92.80;;;;;;5092356;28;20032;-78
2022/05/12 10:50:58;;;;;;;12.52;2.13;;;17.80;93.40;;;;;;5089915;28;20127;-78
2022/05/12 10:53:33;;;;;;;4.97;1.63;;;17.80;93.90;;;;;;5092356;28;20092;-77
2022/05/12 10:56:19;;;;;;;8.63;1.73;;;17.80;93.50;;;;;;5090148;28;20070;-78
2022/05/12 10:58:48;;;;;;;;;;;17.90;92.60;;;;;;5091693;28;20046;-78
2022/05/12 11:01:32;;;;;;;7.22;1.85;;;17.80;90.80;;;;;;5092020;28;20019;-79
2022/05/12 11:04:08;;;;;;;5.07;1.65;;;17.80;90.50;;;;;;5105586;28;20035;-80
2022/05/12 11:06:39;;;;;;;6.07;2.03;;;17.80;90.90;;;;;;5089799;28;20053;-79
2022/05/12 11:09:26;;;;;;;6.97;1.50;;;17.80;91.90;;;;;;5091614;28;20444;-79
2022/05/12 11:11:55;;;;;;;6.30;1.85;;;17.90;92.40;;;;;;5107005;28;20090;-78
2022/05/12 11:14:31;;;;;;;5.63;1.90;;;17.90;92.00;;;;;;5110216;28;20525;-79
2022/05/12 11:17:00;;;;;;;;;;;18.00;92.00;;;;;;5110962;28;20051;-78
2022/05/12 11:19:27;;;;;;;5.13;1.75;;;18.10;91.60;;;;;;5108585;28;19920;-78
2022/05/12 11:22:22;;;;;;;6.55;1.48;;;18.20;91.60;;;;;;5092176;28;20059;-79
2022/05/12 11:25:18;;;;;;;2.50;0.90;;;18.20;89.00;;;;;;5128662;27;20398;-79
2022/05/12 11:29:41;;;;;;;5.40;1.52;;;18.40;90.00;;;;;;5110983;27;20094;-80
2022/05/12 11:30:51;;;;;;;5.68;1.50;;;18.50;87.40;;;;;;5114373;27;20039;-80
2022/05/12 11:33:32;;;;;;;5.15;1.67;;;18.60;89.80;;;;;;5113974;27;20066;-79
2022/05/12 11:35:58;;;;;;;5.13;1.30;;;18.60;88.80;;;;;;5114237;27;21371;-80
2022/05/12 11:38:40;;;;;;;7.68;1.75;;;18.60;87.50;;;;;;5098853;27;20054;-80
2022/05/12 11:41:20;;;;;;;4.53;1.23;;;18.70;88.60;;;;;;5113531;27;20061;-80
2022/05/12 11:47:10;;;;;;;5.32;1.40;;;18.50;83.50;;;;;;5115274;27;20051;-79
2022/05/12 11:50:00;;;;;;;5.03;1.38;;;18.50;81.30;;;;;;5098841;27;20535;-80
2022/05/12 11:52:38;;;;;;;3.85;1.60;;;18.60;83.80;;;;;;5098117;27;20063;-79
2022/05/12 11:55:18;;;;;;;2.80;1.10;;;18.70;82.10;;;;;;5098587;27;20049;-79
2022/05/12 11:57:55;;;;;;;3.97;1.05;;;18.70;82.60;;;;;;5098588;27;20057;-78
2022/05/12 12:00:36;;;;;;;8.65;1.50;;;18.70;82.00;;;;;;5100198;27;20039;-78
2022/05/12 12:03:22;;;;;;;14.40;1.35;;;18.70;81.30;;;;;;5114638;27;20039;-78
2022/05/12 12:05:47;;;;;;;6.03;1.48;;;18.90;82.60;;;;;;5114012;27;20080;-78
2022/05/12 12:08:44;;;;;;;5.30;1.45;;;19.00;80.70;;;;;;5098818;27;20412;-79
2022/05/12 12:11:19;;;;;;;3.72;1.25;;;19.10;78.40;;;;;;5097622;27;20077;-78
2022/05/12 12:13:48;;;;;;;4.78;1.30;;;19.10;76.70;;;;;;5095266;27;20378;-79
2022/05/12 12:16:19;;;;;;;9.52;1.98;;;19.10;77.90;;;;;;5096944;27;20482;-79
2022/05/12 12:19:06;;;;;;;7.15;1.67;;;19.20;77.70;;;;;;5096499;27;20035;-78
2022/05/12 12:21:40;;;;;;;4.93;1.42;;;19.30;76.00;;;;;;5112401;27;20047;-78
2022/05/12 12:24:18;;;;;;;2.78;1.30;;;19.70;74.60;;;;;;5095284;27;20075;-80
2022/05/12 12:26:55;;;;;;;4.95;1.10;;;19.20;74.60;;;;;;5113817;27;20067;-78
2022/05/12 12:29:44;;;;;;;10.48;1.67;;;19.60;76.50;;;;;;5114156;27;20035;-79
2022/05/12 12:32:30;;;;;;;3.75;1.40;;;19.70;75.40;;;;;;5114785;27;20053;-80
2022/05/12 12:35:13;;;;;;;4.93;1.75;;;19.80;71.50;;;;;;5115976;27;20336;-78
2022/05/12 12:37:48;;;;;;;10.85;1.58;;;19.80;72.60;;;;;;5114641;27;20043;-78
2022/05/12 12:40:32;;;;;;;4.35;1.50;;;20.00;73.70;;;;;;5114418;27;20042;-78
2022/05/12 12:43:24;;;;;;;4.68;1.48;;;20.30;71.30;;;;;;5115170;27;20046;-78
2022/05/12 12:45:52;;;;;;;9.70;1.90;;;20.60;70.00;;;;;;5098413;27;20043;-79
2022/05/12 12:48:34;;;;;;;7.57;1.27;;;20.80;72.50;;;;;;5071711;27;20086;-78
2022/05/12 12:51:01;;;;;;;23.10;2.33;;;21.30;70.40;;;;;;5115283;27;20054;-78
2022/05/12 12:56:34;;;;;;;3.47;1.17;;;22.00;70.90;;;;;;5114779;27;20496;-78
2022/05/12 12:59:24;;;;;;;9.10;1.38;;;22.50;65.20;;;;;;5115867;27;20046;-78
2022/05/12 13:02:01;;;;;;;3.15;1.23;;;22.80;61.50;;;;;;5115144;27;20416;-78
2022/05/12 13:04:33;;;;;;;4.43;1.40;;;23.10;63.10;;;;;;5095779;27;20039;-78
2022/05/12 13:07:03;;;;;;;5.90;1.38;;;23.40;62.00;;;;;;5113104;27;20085;-79
2022/05/12 13:09:30;;;;;;;7.82;1.30;;;23.30;61.40;;;;;;5113465;27;20075;-79
2022/05/12 13:12:22;;;;;;;7.13;1.48;;;23.50;62.80;;;;;;5094059;27;20043;-80
2022/05/12 13:14:51;;;;;;;7.28;1.58;;;23.70;60.10;;;;;;5093470;27;20035;-80
2022/05/12 13:17:24;;;;;;;5.43;1.58;;;24.00;62.30;;;;;;5096393;27;20482;-79
2022/05/12 13:19:50;;;;;;;5.40;1.52;;;24.10;59.70;;;;;;5112900;27;20391;-79
2022/05/12 13:22:27;;;;;;;4.88;1.33;;;24.10;58.80;;;;;;5080873;27;20039;-79
2022/05/12 13:24:54;;;;;;;4.90;1.48;;;24.10;57.20;;;;;;5097347;27;20034;-79
2022/05/12 13:27:24;;;;;;;4.30;1.30;;;23.80;58.30;;;;;;5114824;27;20058;-79